createdAt,value
2018-05-29T00:00:33.299Z,13.23
2018-05-29T00:02:59.575Z,13.23
2018-05-29T00:05:26.302Z,13.26
2018-05-29T00:07:52.515Z,13.30
2018-05-29T00:10:18.755Z,13.32
2018-05-29T00:12:45.350Z,13.28
2018-05-29T00:15:11.594Z,13.32
2018-05-29T00:17:37.805Z,13.33
2018-05-29T00:20:04.442Z,13.34
2018-05-29T00:22:30.681Z,13.39
2018-05-29T00:24:56.870Z,13.39
2018-05-29T00:27:23.447Z,13.30
2018-05-29T00:29:49.657Z,13.29
2018-05-29T00:32:15.872Z,13.30
2018-05-29T00:34:42.515Z,13.32
2018-05-29T00:37:08.767Z,13.33
2018-05-29T00:39:34.975Z,13.27
2018-05-29T00:42:01.526Z,13.28
2018-05-29T00:44:27.771Z,13.32
2018-05-29T00:46:54.221Z,13.32
2018-05-29T00:49:20.845Z,13.34
2018-05-29T00:51:47.099Z,13.36
2018-05-29T00:54:13.319Z,13.33
2018-05-29T00:56:39.853Z,13.38
2018-05-29T00:59:06.082Z,13.38
2018-05-29T01:01:32.372Z,13.37
2018-05-29T01:03:58.930Z,13.34
2018-05-29T01:06:25.143Z,13.28
2018-05-29T01:08:51.534Z,13.30
2018-05-29T01:11:18.136Z,13.29
2018-05-29T01:13:44.374Z,13.29
2018-05-29T01:16:10.646Z,13.29
2018-05-29T01:18:37.214Z,13.31
2018-05-29T01:21:03.438Z,13.28
2018-05-29T01:23:29.677Z,13.27
2018-05-29T01:25:56.382Z,13.27
2018-05-29T01:28:22.662Z,13.27
2018-05-29T01:30:48.895Z,13.25
2018-05-29T01:33:15.348Z,13.24
2018-05-29T01:35:41.624Z,13.19
2018-05-29T01:38:07.798Z,13.20
2018-05-29T01:40:34.417Z,13.19
2018-05-29T01:43:00.618Z,13.17
2018-05-29T01:45:26.885Z,13.15
2018-05-29T01:47:53.655Z,13.14
2018-05-29T01:50:19.903Z,13.14
2018-05-29T01:52:46.118Z,13.14
2018-05-29T01:55:12.722Z,13.11
2018-05-29T01:57:38.924Z,13.02
2018-05-29T02:00:05.190Z,12.98
2018-05-29T02:02:31.811Z,12.99
2018-05-29T02:04:58.018Z,12.97
2018-05-29T02:07:24.279Z,12.93
2018-05-29T02:09:50.884Z,12.92
2018-05-29T02:12:17.113Z,12.93
2018-05-29T02:14:43.350Z,12.96
2018-05-29T02:17:09.774Z,12.94
2018-05-29T02:19:36.055Z,12.93
2018-05-29T02:22:02.253Z,12.99
2018-05-29T02:24:28.949Z,12.99
2018-05-29T02:26:55.194Z,13.02
2018-05-29T02:29:21.460Z,13.01
2018-05-29T02:31:48.069Z,12.97
2018-05-29T02:34:14.336Z,12.93
2018-05-29T02:36:40.571Z,12.89
2018-05-29T02:39:07.234Z,12.85
2018-05-29T02:41:33.483Z,12.87
2018-05-29T02:43:59.820Z,12.83
2018-05-29T02:46:26.288Z,12.89
2018-05-29T02:48:52.698Z,12.92
2018-05-29T02:51:18.948Z,12.90
2018-05-29T02:53:45.463Z,12.94
2018-05-29T02:56:11.669Z,12.93
2018-05-29T02:58:37.911Z,12.96
2018-05-29T03:01:04.477Z,12.99
2018-05-29T03:03:30.730Z,12.98
2018-05-29T03:05:57.008Z,12.98
2018-05-29T03:08:23.448Z,12.94
2018-05-29T03:10:49.658Z,12.95
2018-05-29T03:13:15.903Z,12.94
2018-05-29T03:15:42.288Z,12.93
2018-05-29T03:18:08.484Z,12.94
2018-05-29T03:20:34.697Z,12.99
2018-05-29T03:23:01.444Z,13.05
2018-05-29T03:25:27.693Z,13.11
2018-05-29T03:27:53.898Z,13.16
2018-05-29T03:30:20.357Z,13.19
2018-05-29T03:32:46.577Z,13.20
2018-05-29T03:35:12.815Z,13.24
2018-05-29T03:37:39.386Z,13.27
2018-05-29T03:40:05.617Z,13.31
2018-05-29T03:42:31.839Z,13.36
2018-05-29T03:44:58.239Z,13.39
2018-05-29T03:47:24.454Z,13.43
2018-05-29T03:49:50.749Z,13.46
2018-05-29T03:52:17.500Z,13.49
2018-05-29T03:54:43.689Z,13.53
2018-05-29T03:57:09.895Z,13.55
2018-05-29T03:59:36.507Z,13.60
2018-05-29T04:02:02.751Z,13.66
2018-05-29T04:04:29.009Z,13.71
2018-05-29T04:06:55.509Z,13.75
2018-05-29T04:09:21.782Z,13.83
2018-05-29T04:11:48.006Z,13.88
2018-05-29T04:14:14.550Z,13.95
2018-05-29T04:16:40.785Z,14.02
2018-05-29T04:19:07.009Z,14.07
2018-05-29T04:21:33.977Z,14.17
2018-05-29T04:24:00.218Z,14.23
2018-05-29T04:26:26.438Z,14.27
2018-05-29T04:28:53.081Z,14.37
2018-05-29T04:31:19.267Z,14.44
2018-05-29T04:33:45.487Z,14.50
2018-05-29T04:36:12.202Z,14.57
2018-05-29T04:38:38.400Z,14.64
2018-05-29T04:41:04.668Z,14.70
2018-05-29T04:43:31.153Z,14.79
2018-05-29T04:45:57.372Z,14.87
2018-05-29T04:48:23.629Z,14.94
2018-05-29T04:50:50.223Z,15.03
2018-05-29T04:53:16.492Z,15.12
2018-05-29T04:55:42.688Z,15.18
2018-05-29T04:58:09.231Z,15.24
2018-05-29T05:00:35.487Z,15.29
2018-05-29T05:03:01.693Z,15.38
2018-05-29T05:05:28.065Z,15.46
2018-05-29T05:07:54.273Z,15.51
2018-05-29T05:10:20.513Z,15.62
2018-05-29T05:12:47.099Z,15.69
2018-05-29T05:15:13.333Z,15.77
2018-05-29T05:17:39.565Z,15.81
2018-05-29T05:20:06.118Z,15.91
2018-05-29T05:22:32.355Z,15.98
2018-05-29T05:24:58.604Z,16.08
2018-05-29T05:27:24.984Z,16.15
2018-05-29T05:29:51.179Z,16.22
2018-05-29T05:32:17.421Z,16.29
2018-05-29T05:34:43.941Z,16.41
2018-05-29T05:37:10.174Z,16.52
2018-05-29T05:39:36.402Z,16.62
2018-05-29T05:42:02.816Z,16.73
2018-05-29T05:44:29.064Z,16.82
2018-05-29T05:46:55.296Z,16.92
2018-05-29T05:49:21.841Z,17.00
2018-05-29T05:51:48.285Z,17.12
2018-05-29T05:54:14.492Z,17.22
2018-05-29T05:56:41.106Z,17.36
2018-05-29T05:59:07.308Z,17.48
2018-05-29T06:01:33.526Z,17.61
2018-05-29T06:04:00.170Z,17.74
2018-05-29T06:06:26.406Z,17.92
2018-05-29T06:08:52.667Z,18.05
2018-05-29T06:11:19.119Z,18.14
2018-05-29T06:13:45.381Z,18.24
2018-05-29T06:16:11.623Z,18.37
2018-05-29T06:18:38.155Z,18.47
2018-05-29T06:21:04.398Z,18.59
2018-05-29T06:23:30.641Z,18.73
2018-05-29T06:25:57.199Z,18.87
2018-05-29T06:28:23.287Z,19.03
2018-05-29T06:30:49.529Z,19.13
2018-05-29T06:33:16.075Z,19.25
2018-05-29T06:35:42.315Z,19.40
2018-05-29T06:38:08.488Z,19.51
2018-05-29T06:40:34.939Z,19.61
2018-05-29T06:43:01.144Z,19.76
2018-05-29T06:45:27.207Z,19.88
2018-05-29T06:47:53.834Z,19.76
2018-05-29T06:50:20.061Z,19.99
2018-05-29T06:52:46.437Z,20.09
2018-05-29T06:55:12.981Z,20.20
2018-05-29T06:57:39.233Z,20.27
2018-05-29T07:00:05.497Z,20.35
2018-05-29T07:02:32.019Z,20.42
2018-05-29T07:04:58.263Z,20.52
2018-05-29T07:07:24.451Z,20.61
2018-05-29T07:09:50.806Z,20.70
2018-05-29T07:12:17.031Z,20.79
2018-05-29T07:14:43.332Z,20.92
2018-05-29T07:17:10.020Z,21.01
2018-05-29T07:19:36.226Z,21.11
2018-05-29T07:22:02.287Z,21.22
2018-05-29T07:24:28.507Z,21.34
2018-05-29T07:26:54.736Z,21.41
2018-05-29T07:29:20.858Z,21.53
2018-05-29T07:31:47.469Z,21.62
2018-05-29T07:34:13.536Z,21.71
2018-05-29T07:36:39.597Z,21.90
2018-05-29T07:39:06.027Z,22.10
2018-05-29T07:41:32.244Z,22.24
2018-05-29T07:43:58.463Z,22.32
2018-05-29T07:46:25.206Z,22.41
2018-05-29T07:48:51.395Z,22.49
2018-05-29T07:51:17.514Z,22.56
2018-05-29T07:53:44.193Z,22.62
2018-05-29T07:56:10.452Z,22.69
2018-05-29T07:58:36.590Z,22.77
2018-05-29T08:01:02.893Z,22.89
2018-05-29T08:03:29.173Z,22.97
2018-05-29T08:05:55.313Z,23.07
2018-05-29T08:08:21.823Z,23.23
2018-05-29T08:10:47.995Z,23.35
2018-05-29T08:13:14.028Z,23.43
2018-05-29T08:15:40.249Z,23.52
2018-05-29T08:18:06.320Z,23.58
2018-05-29T08:20:32.370Z,23.63
2018-05-29T08:22:58.865Z,23.68
2018-05-29T08:25:25.072Z,23.74
2018-05-29T08:27:51.260Z,23.85
2018-05-29T08:30:17.848Z,23.98
2018-05-29T08:32:44.036Z,24.09
2018-05-29T08:35:10.323Z,24.16
2018-05-29T08:37:37.011Z,24.26
2018-05-29T08:40:03.244Z,24.36
2018-05-29T08:42:29.434Z,24.50
2018-05-29T08:44:56.075Z,24.60
2018-05-29T08:47:22.243Z,24.73
2018-05-29T08:49:48.440Z,24.88
2018-05-29T08:52:14.846Z,25.02
2018-05-29T08:54:41.246Z,25.18
2018-05-29T08:57:07.437Z,25.30
2018-05-29T08:59:34.008Z,25.40
2018-05-29T09:02:00.247Z,25.45
2018-05-29T09:04:26.420Z,25.56
2018-05-29T09:06:52.890Z,25.68
2018-05-29T09:09:19.087Z,25.75
2018-05-29T09:11:45.267Z,25.83
2018-05-29T09:14:11.911Z,25.91
2018-05-29T09:16:38.075Z,25.96
2018-05-29T09:19:04.247Z,26.03
2018-05-29T09:21:30.755Z,26.12
2018-05-29T09:23:56.941Z,26.18
2018-05-29T09:26:23.219Z,26.28
2018-05-29T09:28:49.602Z,26.33
2018-05-29T09:31:15.770Z,26.43
2018-05-29T09:33:41.979Z,26.48
2018-05-29T09:36:08.383Z,26.63
2018-05-29T09:38:34.568Z,26.72
2018-05-29T09:41:00.723Z,26.83
2018-05-29T09:43:42.214Z,27.10
2018-05-29T09:46:08.380Z,27.69
2018-05-29T09:48:34.563Z,28.16
2018-05-29T09:51:01.132Z,28.56
2018-05-29T09:53:27.318Z,28.81
2018-05-29T09:55:53.748Z,28.99
2018-05-29T09:58:20.148Z,29.08
2018-05-29T10:00:46.408Z,29.19
2018-05-29T10:03:12.582Z,29.29
2018-05-29T10:05:39.004Z,29.43
2018-05-29T10:08:05.261Z,29.58
2018-05-29T10:10:31.453Z,29.69
2018-05-29T10:12:58.091Z,29.78
2018-05-29T10:15:24.281Z,29.78
2018-05-29T10:17:50.443Z,29.80
2018-05-29T10:20:16.930Z,29.86
2018-05-29T10:22:43.114Z,29.84
2018-05-29T10:25:09.306Z,29.90
2018-05-29T10:27:35.936Z,29.97
2018-05-29T10:30:02.098Z,30.04
2018-05-29T10:32:28.309Z,30.06
2018-05-29T10:34:54.895Z,30.13
2018-05-29T10:37:21.060Z,30.24
2018-05-29T10:39:47.206Z,30.35
2018-05-29T10:42:13.846Z,30.41
2018-05-29T10:44:40.027Z,30.43
2018-05-29T10:47:06.182Z,30.50
2018-05-29T10:49:32.705Z,30.48
2018-05-29T10:51:58.863Z,30.44
2018-05-29T10:54:25.048Z,30.45
2018-05-29T10:56:51.691Z,30.51
2018-05-29T10:59:18.036Z,30.69
2018-05-29T11:01:44.138Z,30.81
2018-05-29T11:04:10.557Z,30.93
2018-05-29T11:06:36.726Z,31.05
2018-05-29T11:09:02.962Z,31.07
2018-05-29T11:11:29.496Z,31.11
2018-05-29T11:13:55.657Z,31.20
2018-05-29T11:16:21.860Z,31.25
2018-05-29T11:18:48.294Z,31.26
2018-05-29T11:21:14.480Z,31.24
2018-05-29T11:23:40.673Z,31.29
2018-05-29T11:26:07.091Z,31.34
2018-05-29T11:28:33.262Z,31.30
2018-05-29T11:30:59.434Z,31.37
2018-05-29T11:33:25.934Z,31.48
2018-05-29T11:35:52.256Z,31.51
2018-05-29T11:38:18.437Z,31.64
2018-05-29T11:40:44.763Z,31.68
2018-05-29T11:43:11.122Z,31.66
2018-05-29T11:45:37.290Z,31.75
2018-05-29T11:48:03.551Z,31.85
2018-05-29T11:50:30.080Z,31.88
2018-05-29T11:52:56.207Z,31.92
2018-05-29T11:58:51.640Z,32.12
2018-05-29T12:01:17.963Z,32.17
2018-05-29T12:03:44.154Z,32.18
2018-05-29T12:06:10.593Z,32.17
2018-05-29T12:08:36.892Z,32.13
2018-05-29T12:11:03.126Z,32.10
2018-05-29T12:13:29.433Z,32.14
2018-05-29T12:15:55.644Z,32.15
2018-05-29T12:18:21.788Z,32.06
2018-05-29T12:20:48.122Z,32.00
2018-05-29T12:23:14.485Z,32.04
2018-05-29T12:25:40.655Z,32.04
2018-05-29T12:28:06.969Z,32.07
2018-05-29T12:30:33.307Z,32.16
2018-05-29T12:32:59.466Z,32.17
2018-05-29T12:35:25.841Z,32.17
2018-05-29T12:37:52.208Z,32.11
2018-05-29T12:40:18.391Z,32.04
2018-05-29T12:42:44.794Z,31.96
2018-05-29T12:45:11.121Z,31.89
2018-05-29T12:47:37.332Z,31.87
2018-05-29T12:50:03.709Z,31.76
2018-05-29T12:52:29.928Z,31.62
2018-05-29T12:54:58.800Z,31.48
2018-05-29T12:57:25.107Z,31.41
2018-05-29T12:59:51.480Z,31.31
2018-05-29T13:05:01.035Z,31.12
2018-05-29T13:07:27.077Z,31.10
2018-05-29T13:09:53.103Z,31.07
2018-05-29T13:12:19.487Z,31.01
2018-05-29T13:14:45.490Z,30.89
2018-05-29T13:17:11.566Z,30.87
2018-05-29T13:19:37.838Z,30.80
2018-05-29T13:22:03.879Z,30.75
2018-05-29T13:24:29.921Z,30.72
2018-05-29T13:26:56.372Z,30.62
2018-05-29T13:29:22.362Z,30.50
2018-05-29T13:31:48.384Z,30.34
2018-05-29T13:34:14.778Z,30.19
2018-05-29T13:36:40.774Z,30.11
2018-05-29T13:39:06.770Z,30.01
2018-05-29T13:41:32.977Z,29.92
2018-05-29T13:43:58.973Z,29.87
2018-05-29T13:46:25.008Z,29.80
2018-05-29T13:48:51.432Z,29.68
2018-05-29T13:51:17.398Z,29.62
2018-05-29T13:53:43.417Z,29.54
2018-05-29T13:56:09.759Z,29.40
2018-05-29T13:58:35.731Z,29.24
2018-05-29T14:01:02.108Z,29.20
2018-05-29T14:03:28.575Z,29.06
2018-05-29T14:05:54.725Z,28.99
2018-05-29T14:08:20.831Z,28.94
2018-05-29T14:10:47.416Z,28.89
2018-05-29T14:13:13.520Z,28.82
2018-05-29T14:15:39.622Z,28.75
2018-05-29T14:18:06.127Z,28.72
2018-05-29T14:20:32.263Z,28.71
2018-05-29T14:22:58.386Z,28.65
2018-05-29T14:25:24.929Z,28.60
2018-05-29T14:27:51.039Z,28.55
2018-05-29T14:30:17.174Z,28.51
2018-05-29T14:32:43.695Z,28.44
2018-05-29T14:35:09.824Z,28.38
2018-05-29T14:37:35.959Z,28.33
2018-05-29T14:40:02.494Z,28.27
2018-05-29T14:42:28.648Z,28.24
2018-05-29T14:44:54.790Z,28.20
2018-05-29T14:47:21.226Z,28.21
2018-05-29T14:49:47.382Z,28.21
2018-05-29T14:52:13.577Z,28.19
2018-05-29T14:54:40.016Z,28.17
2018-05-29T14:57:06.171Z,28.06
2018-05-29T14:59:32.273Z,28.10
2018-05-29T15:01:58.810Z,28.12
2018-05-29T15:04:25.010Z,28.13
2018-05-29T15:06:51.148Z,28.11
2018-05-29T15:09:17.596Z,28.13
2018-05-29T15:11:43.724Z,28.09
2018-05-29T15:14:09.869Z,28.08
2018-05-29T15:16:36.298Z,28.08
2018-05-29T15:19:02.413Z,28.07
2018-05-29T15:21:28.566Z,28.04
2018-05-29T15:23:54.954Z,28.04
2018-05-29T15:26:21.123Z,28.06
2018-05-29T15:28:47.248Z,28.12
2018-05-29T15:31:13.536Z,28.15
2018-05-29T15:33:39.663Z,28.24
2018-05-29T15:36:05.895Z,28.23
2018-05-29T15:38:32.306Z,28.25
2018-05-29T15:40:58.434Z,28.26
2018-05-29T15:43:24.597Z,28.23
2018-05-29T15:45:50.987Z,28.34
2018-05-29T15:48:17.110Z,28.45
2018-05-29T15:50:43.246Z,28.49
2018-05-29T15:53:09.710Z,28.57
2018-05-29T15:55:35.830Z,28.63
2018-05-29T15:58:01.983Z,28.67
2018-05-29T16:00:28.578Z,28.67
2018-05-29T16:02:54.936Z,28.72
2018-05-29T16:05:21.087Z,28.68
2018-05-29T16:07:47.635Z,28.62
2018-05-29T16:10:13.761Z,28.56
2018-05-29T16:12:39.893Z,28.49
2018-05-29T16:15:06.329Z,28.43
2018-05-29T16:17:32.450Z,28.38
2018-05-29T16:19:58.652Z,28.26
2018-05-29T16:22:25.083Z,28.12
2018-05-29T16:24:51.203Z,27.93
2018-05-29T16:27:17.368Z,27.78
2018-05-29T16:29:43.817Z,27.70
2018-05-29T16:32:09.926Z,27.59
2018-05-29T16:34:36.145Z,27.46
2018-05-29T16:37:02.615Z,27.37
2018-05-29T16:39:28.795Z,27.32
2018-05-29T16:41:54.937Z,27.25
2018-05-29T16:44:21.415Z,27.19
2018-05-29T16:46:47.544Z,27.15
2018-05-29T16:49:13.760Z,27.10
2018-05-29T16:51:40.277Z,27.08
2018-05-29T16:54:06.435Z,27.03
2018-05-29T16:56:32.618Z,26.98
2018-05-29T16:58:58.925Z,26.91
2018-05-29T17:01:25.064Z,26.85
2018-05-29T17:03:51.429Z,26.79
2018-05-29T17:06:17.858Z,26.74
2018-05-29T17:08:44.010Z,26.68
2018-05-29T17:11:10.165Z,26.66
2018-05-29T17:13:36.559Z,26.63
2018-05-29T17:16:02.686Z,26.56
2018-05-29T17:18:28.821Z,26.52
2018-05-29T17:20:55.340Z,26.32
2018-05-29T17:23:21.454Z,26.36
2018-05-29T17:25:47.600Z,26.25
2018-05-29T17:28:14.073Z,26.17
2018-05-29T17:30:40.202Z,26.11
2018-05-29T17:33:06.357Z,26.02
2018-05-29T17:35:32.888Z,25.91
2018-05-29T17:37:59.003Z,25.85
2018-05-29T17:40:25.135Z,25.75
2018-05-29T17:42:51.596Z,25.62
2018-05-29T17:45:17.702Z,25.53
2018-05-29T17:47:43.845Z,25.42
2018-05-29T17:50:10.186Z,25.31
2018-05-29T17:52:36.314Z,25.21
2018-05-29T17:55:02.447Z,25.12
2018-05-29T17:57:28.887Z,25.00
2018-05-29T17:59:55.012Z,24.94
2018-05-29T18:04:54.347Z,24.81
2018-05-29T18:07:20.459Z,24.72
2018-05-29T18:09:46.601Z,24.62
2018-05-29T18:12:12.987Z,24.53
2018-05-29T18:14:39.090Z,24.45
2018-05-29T18:17:05.233Z,24.36
2018-05-29T18:19:31.702Z,24.25
2018-05-29T18:21:57.843Z,24.16
2018-05-29T18:24:23.998Z,24.11
2018-05-29T18:26:50.430Z,24.03
2018-05-29T18:29:16.544Z,23.97
2018-05-29T18:31:42.682Z,23.89
2018-05-29T18:34:09.113Z,23.82
2018-05-29T18:36:35.278Z,23.73
2018-05-29T18:39:01.494Z,23.67
2018-05-29T18:41:28.162Z,23.66
2018-05-29T18:43:54.353Z,23.60
2018-05-29T18:46:20.589Z,23.54
2018-05-29T18:48:47.176Z,23.50
2018-05-29T18:51:13.353Z,23.41
2018-05-29T18:53:39.475Z,23.37
2018-05-29T18:56:05.846Z,23.32
2018-05-29T18:58:32.092Z,23.27
2018-05-29T19:00:58.281Z,23.18
2018-05-29T19:03:24.675Z,23.11
2018-05-29T19:05:51.097Z,23.02
2018-05-29T19:08:17.295Z,22.98
2018-05-29T19:10:43.597Z,22.95
2018-05-29T19:13:09.857Z,22.90
2018-05-29T19:15:36.070Z,22.80
2018-05-29T19:18:02.433Z,22.75
2018-05-29T19:20:28.608Z,22.69
2018-05-29T19:22:54.989Z,22.66
2018-05-29T19:25:21.475Z,22.60
2018-05-29T19:27:47.660Z,22.52
2018-05-29T19:30:13.818Z,22.46
2018-05-29T19:32:40.250Z,22.34
2018-05-29T19:35:06.452Z,22.32
2018-05-29T19:37:32.645Z,22.26
2018-05-29T19:39:59.229Z,22.20
2018-05-29T19:42:25.383Z,22.15
2018-05-29T19:44:51.564Z,22.10
2018-05-29T19:47:18.136Z,22.05
2018-05-29T19:49:44.344Z,21.97
2018-05-29T19:52:10.497Z,21.88
2018-05-29T19:54:37.064Z,21.76
2018-05-29T19:57:03.288Z,21.65
2018-05-29T19:59:29.493Z,21.57
2018-05-29T20:01:55.985Z,21.47
2018-05-29T20:04:22.254Z,21.35
2018-05-29T20:06:48.529Z,21.28
2018-05-29T20:09:14.938Z,21.23
2018-05-29T20:11:41.144Z,21.16
2018-05-29T20:14:07.273Z,21.08
2018-05-29T20:16:33.583Z,20.98
2018-05-29T20:18:59.772Z,20.87
2018-05-29T20:21:25.999Z,20.74
2018-05-29T20:23:52.432Z,20.67
2018-05-29T20:26:18.656Z,20.57
2018-05-29T20:28:44.834Z,20.46
2018-05-29T20:31:11.322Z,20.38
2018-05-29T20:33:37.504Z,20.27
2018-05-29T20:36:03.774Z,20.12
2018-05-29T20:38:30.331Z,20.02
2018-05-29T20:40:56.534Z,19.93
2018-05-29T20:43:22.723Z,19.88
2018-05-29T20:45:49.266Z,19.84
2018-05-29T20:48:15.473Z,19.77
2018-05-29T20:50:41.674Z,19.75
2018-05-29T20:53:08.200Z,19.70
2018-05-29T20:55:34.374Z,19.66
2018-05-29T20:58:00.596Z,19.59
2018-05-29T21:00:27.167Z,19.51
2018-05-29T21:02:53.338Z,19.44
2018-05-29T21:05:19.528Z,19.37
2018-05-29T21:07:46.316Z,19.30
2018-05-29T21:10:12.512Z,19.24
2018-05-29T21:12:38.696Z,19.17
2018-05-29T21:15:05.109Z,19.07
2018-05-29T21:17:31.320Z,19.00
2018-05-29T21:19:57.466Z,18.88
2018-05-29T21:22:24.092Z,18.76
2018-05-29T21:24:50.267Z,18.66
2018-05-29T21:27:16.482Z,18.56
2018-05-29T21:29:42.920Z,18.46
2018-05-29T21:32:09.086Z,18.42
2018-05-29T21:34:35.239Z,18.34
2018-05-29T21:37:02.113Z,18.27
2018-05-29T21:39:28.266Z,18.19
2018-05-29T21:41:54.461Z,18.14
2018-05-29T21:44:20.975Z,18.09
2018-05-29T21:46:47.153Z,18.03
2018-05-29T21:49:13.296Z,17.94
2018-05-29T21:51:39.879Z,17.86
2018-05-29T21:54:06.134Z,17.77
2018-05-29T21:56:32.291Z,17.69
2018-05-29T21:58:58.859Z,17.61
2018-05-29T22:01:25.084Z,17.54
2018-05-29T22:03:51.240Z,17.49
2018-05-29T22:06:17.932Z,17.42
2018-05-29T22:08:44.191Z,17.41
2018-05-29T22:11:10.323Z,17.31
2018-05-29T22:13:36.782Z,17.25
2018-05-29T22:16:03.112Z,17.17
2018-05-29T22:18:29.254Z,17.11
2018-05-29T22:20:55.906Z,17.06
2018-05-29T22:23:22.034Z,16.99
2018-05-29T22:25:48.184Z,16.93
2018-05-29T22:28:14.784Z,16.86
2018-05-29T22:30:41.116Z,16.77
2018-05-29T22:33:07.223Z,16.76
2018-05-29T22:35:33.715Z,16.68
2018-05-29T22:37:59.916Z,16.66
2018-05-29T22:40:26.085Z,16.60
2018-05-29T22:42:52.515Z,16.55
2018-05-29T22:45:18.771Z,16.50
2018-05-29T22:47:44.921Z,16.43
2018-05-29T22:50:11.504Z,16.35
2018-05-29T22:52:37.673Z,16.28
2018-05-29T22:55:03.913Z,16.25
2018-05-29T22:57:30.421Z,16.20
2018-05-29T22:59:56.581Z,16.14
2018-05-29T23:02:22.744Z,16.12
2018-05-29T23:04:49.281Z,16.07
2018-05-29T23:07:15.555Z,16.03
2018-05-29T23:09:41.903Z,15.96
2018-05-29T23:12:08.370Z,15.90
2018-05-29T23:14:34.626Z,15.87
2018-05-29T23:17:00.854Z,15.84
2018-05-29T23:19:27.500Z,15.80
2018-05-29T23:21:53.780Z,15.76
2018-05-29T23:24:20.002Z,15.73
2018-05-29T23:26:46.518Z,15.66
2018-05-29T23:29:12.734Z,15.63
2018-05-29T23:31:38.981Z,15.58
2018-05-29T23:34:05.711Z,15.53
2018-05-29T23:36:31.927Z,15.49
2018-05-29T23:38:58.195Z,15.47
2018-05-29T23:41:24.735Z,15.44
2018-05-29T23:43:50.958Z,15.40
2018-05-29T23:46:17.223Z,15.38
2018-05-29T23:48:43.746Z,15.35
2018-05-29T23:51:10.001Z,15.33
2018-05-29T23:53:36.199Z,15.30
2018-05-29T23:56:02.830Z,15.30
2018-05-29T23:58:29.145Z,15.27
